Time;durP1;ratioP1;P1;durP2;ratioP2;P2;SDS_P1;SDS_P2;PMS_P1;PMS_P2;Temp;Humidity;BMP_temperature;BMP_pressure;BME280_temperature;BME280_humidity;BME280_pressure;Samples;Min_cycle;Max_cycle;Signal;HPM_P1;HPM_P2
2021/11/23 00:00:19;;;;;;;14.60;11.70;;;2.50;99.90;;;;;;5112631;28;20498;-77
2021/11/23 00:02:44;;;;;;;17.00;11.83;;;2.40;99.90;;;;;;5114277;28;20664;-76
2021/11/23 00:05:12;;;;;;;16.97;12.23;;;2.40;99.90;;;;;;5113935;28;20183;-77
2021/11/23 00:07:38;;;;;;;15.90;11.50;;;2.40;99.90;;;;;;5113803;28;20204;-78
2021/11/23 00:10:05;;;;;;;16.87;11.93;;;2.40;99.90;;;;;;5116167;28;20413;-78
2021/11/23 00:12:31;;;;;;;16.90;12.47;;;2.40;99.90;;;;;;5118007;28;20493;-76
2021/11/23 00:14:57;;;;;;;18.50;11.93;;;2.30;99.90;;;;;;5116780;28;20183;-77
2021/11/23 00:17:23;;;;;;;17.20;13.23;;;2.30;99.90;;;;;;5116572;28;20417;-77
2021/11/23 00:19:49;;;;;;;16.07;11.77;;;2.30;99.90;;;;;;5116772;28;20183;-77
2021/11/23 00:22:14;;;;;;;19.23;11.90;;;2.30;99.90;;;;;;5117718;28;20609;-77
2021/11/23 00:24:40;;;;;;;18.23;12.87;;;2.40;99.90;;;;;;5116481;28;20594;-77
2021/11/23 00:27:06;;;;;;;17.83;13.07;;;2.30;99.90;;;;;;5117818;28;20268;-76
2021/11/23 00:29:32;;;;;;;23.53;13.30;;;2.30;99.90;;;;;;5117751;28;20206;-77
2021/11/23 00:31:58;;;;;;;18.20;13.03;;;2.30;99.90;;;;;;5116121;28;20295;-76
2021/11/23 00:34:25;;;;;;;19.53;14.20;;;2.20;99.90;;;;;;5117473;28;20216;-77
2021/11/23 00:36:51;;;;;;;21.83;14.47;;;2.20;99.90;;;;;;5117541;28;20173;-77
2021/11/23 00:39:17;;;;;;;24.10;15.13;;;2.20;99.90;;;;;;5117450;28;20180;-77
2021/11/23 00:41:47;;;;;;;19.03;13.33;;;2.20;99.90;;;;;;5117174;28;20972;-77
2021/11/23 00:44:18;;;;;;;21.83;14.03;;;2.20;99.90;;;;;;5116270;28;20191;-78
2021/11/23 00:46:44;;;;;;;20.20;14.10;;;2.20;99.90;;;;;;5117780;28;20641;-77
2021/11/23 00:49:12;;;;;;;21.73;14.40;;;2.20;99.90;;;;;;5116263;28;20207;-77
2021/11/23 00:51:37;;;;;;;20.20;14.33;;;2.20;99.90;;;;;;5117251;27;20430;-77
2021/11/23 00:54:03;;;;;;;18.17;13.30;;;2.20;99.90;;;;;;5117366;28;20228;-77
2021/11/23 00:56:29;;;;;;;19.80;13.20;;;2.20;99.90;;;;;;5117166;27;20179;-77
2021/11/23 00:58:55;;;;;;;19.33;13.53;;;2.20;99.90;;;;;;5115998;28;20177;-76
2021/11/23 01:01:20;;;;;;;19.63;12.50;;;2.20;99.90;;;;;;5116994;28;20629;-76
2021/11/23 01:03:46;;;;;;;18.70;13.33;;;2.20;99.90;;;;;;5117185;28;20179;-77
2021/11/23 01:06:12;;;;;;;17.77;13.33;;;2.20;99.90;;;;;;5117096;28;20574;-76
2021/11/23 01:08:39;;;;;;;17.50;13.23;;;2.20;99.90;;;;;;5117033;28;20205;-76
2021/11/23 01:11:10;;;;;;;18.97;12.63;;;2.20;99.90;;;;;;5115562;28;20180;-77
2021/11/23 01:13:37;;;;;;;19.83;11.63;;;2.10;99.90;;;;;;5116955;28;20512;-76
2021/11/23 01:16:05;;;;;;;18.90;11.97;;;2.10;99.90;;;;;;5115801;28;20188;-77
2021/11/23 11:14:45;;;;;;;13.40;9.63;;;3.10;99.90;;;;;;5132837;27;20612;-76
2021/11/23 11:17:11;;;;;;;14.90;9.93;;;3.20;99.90;;;;;;5132166;28;20407;-77
2021/11/23 11:19:48;;;;;;;14.60;10.10;;;3.30;99.90;;;;;;5113758;28;20515;-78
2021/11/23 11:22:17;;;;;;;14.17;9.73;;;3.30;99.90;;;;;;5132093;28;20691;-77
2021/11/23 11:25:24;;;;;;;14.97;10.23;;;3.30;99.90;;;;;;5132139;27;20410;-77
2021/11/23 11:27:51;;;;;;;16.87;9.87;;;3.10;99.90;;;;;;5130555;28;20416;-77
2021/11/23 11:30:33;;;;;;;14.90;10.67;;;3.10;99.90;;;;;;5130307;28;20171;-77
2021/11/23 11:33:10;;;;;;;14.33;9.50;;;3.10;99.90;;;;;;5130369;28;20204;-77
2021/11/23 11:35:43;;;;;;;15.57;10.33;;;3.20;99.90;;;;;;5130814;28;20699;-78
2021/11/23 11:38:29;;;;;;;15.60;10.63;;;3.20;99.90;;;;;;5131808;28;20174;-77
2021/11/23 11:41:07;;;;;;;16.10;10.13;;;3.20;99.90;;;;;;5130563;28;20643;-77
2021/11/23 11:43:43;;;;;;;14.80;9.97;;;3.10;99.90;;;;;;5130359;28;20195;-77
2021/11/23 11:46:28;;;;;;;15.47;10.67;;;3.10;99.90;;;;;;5132017;27;20160;-77
2021/11/23 11:48:54;;;;;;;12.73;10.07;;;3.10;99.90;;;;;;5130764;28;20203;-79
2021/11/23 11:51:31;;;;;;;14.17;10.37;;;3.10;99.90;;;;;;5131398;27;20581;-76
2021/11/23 11:54:21;;;;;;;36.67;10.30;;;3.10;99.90;;;;;;5130448;28;20239;-77
2021/11/23 11:56:49;;;;;;;12.40;9.13;;;3.00;99.90;;;;;;5130348;28;20236;-77
2021/11/23 11:59:18;;;;;;;21.53;9.27;;;3.20;99.90;;;;;;5130312;28;20171;-78
2021/11/23 12:02:18;;;;;;;12.07;9.10;;;2.90;99.90;;;;;;5130110;28;20433;-77
2021/11/23 12:05:00;;;;;;;13.77;9.30;;;3.20;99.90;;;;;;5130928;28;20147;-76
2021/11/23 12:07:44;;;;;;;13.43;8.27;;;3.30;99.90;;;;;;5131205;28;20163;-77
2021/11/23 12:10:32;;;;;;;11.07;8.20;;;3.40;99.90;;;;;;5130184;28;20160;-77
2021/11/23 12:13:30;;;;;;;13.60;9.40;;;3.60;99.90;;;;;;5130175;28;20296;-77
2021/11/23 12:16:12;;;;;;;12.17;8.60;;;3.60;99.90;;;;;;5107734;27;20183;-77
2021/11/23 12:18:45;;;;;;;12.33;9.20;;;3.70;99.90;;;;;;5131433;27;20151;-77
2021/11/23 12:21:16;;;;;;;15.77;8.73;;;3.60;99.90;;;;;;5129970;28;20531;-77
2021/11/23 12:23:56;;;;;;;14.07;8.37;;;3.80;99.90;;;;;;5131613;27;20167;-77
2021/11/23 12:26:29;;;;;;;12.07;8.37;;;3.40;99.90;;;;;;5117489;28;20235;-78
2021/11/23 12:29:00;;;;;;;10.27;7.93;;;3.50;99.90;;;;;;5119219;28;20177;-77
2021/11/23 12:31:32;;;;;;;12.63;9.00;;;3.50;99.90;;;;;;5117504;28;20180;-77
2021/11/23 12:34:01;;;;;;;17.30;8.80;;;3.30;99.90;;;;;;5117216;28;20207;-78
2021/11/23 12:36:30;;;;;;;15.80;8.57;;;3.20;99.90;;;;;;5119000;28;20205;-78
2021/11/23 12:39:12;;;;;;;12.93;9.00;;;3.30;99.90;;;;;;5117080;28;20184;-77
2021/11/23 12:41:38;;;;;;;12.10;8.67;;;;;;;;;;5118157;28;20189;-77
2021/11/23 12:44:25;;;;;;;16.13;9.30;;;3.10;99.90;;;;;;5116784;28;20182;-78
2021/11/23 12:46:54;;;;;;;19.00;9.63;;;3.50;99.90;;;;;;5118823;28;20169;-77
2021/11/23 12:49:19;;;;;;;15.30;9.07;;;3.20;99.90;;;;;;5117340;28;20641;-78
2021/11/23 12:51:54;;;;;;;17.27;10.30;;;3.20;99.90;;;;;;5117060;28;20215;-78
2021/11/23 12:54:24;;;;;;;15.90;9.53;;;3.10;99.90;;;;;;5118423;28;20733;-77
2021/11/23 12:57:03;;;;;;;11.40;8.20;;;3.00;99.90;;;;;;5117259;28;20217;-78
2021/11/23 12:59:34;;;;;;;16.10;10.50;;;3.10;99.90;;;;;;5117201;28;20621;-78
2021/11/23 13:02:02;;;;;;;16.07;10.07;;;3.00;99.90;;;;;;5117910;28;20187;-79
2021/11/23 13:04:41;;;;;;;13.43;8.90;;;3.00;99.90;;;;;;5118160;27;20714;-78
2021/11/23 13:07:09;;;;;;;12.73;9.03;;;3.30;99.90;;;;;;5118054;28;20515;-78
2021/11/23 13:09:53;;;;;;;14.00;9.13;;;3.10;99.90;;;;;;5117685;28;20668;-78
2021/11/23 13:12:25;;;;;;;13.63;8.77;;;2.70;99.90;;;;;;5117665;28;20240;-78
2021/11/23 13:14:55;;;;;;;14.93;9.33;;;2.90;99.90;;;;;;5118145;28;20176;-78
2021/11/23 13:17:50;;;;;;;12.10;8.37;;;2.90;99.90;;;;;;5120113;28;20189;-78
2021/11/23 13:20:18;;;;;;;16.63;9.43;;;3.00;99.90;;;;;;5118764;28;20172;-77
2021/11/23 13:22:58;;;;;;;15.93;9.03;;;2.80;99.90;;;;;;5115218;28;20680;-77
2021/11/23 13:25:29;;;;;;;16.70;9.27;;;2.90;99.90;;;;;;5116895;28;20179;-78
2021/11/23 13:27:55;;;;;;;14.03;9.07;;;2.90;99.90;;;;;;5115367;28;20169;-77
2021/11/23 13:30:49;;;;;;;11.47;8.80;;;2.80;99.90;;;;;;5115878;28;20187;-78
2021/11/23 13:33:32;;;;;;;13.97;9.40;;;2.80;99.90;;;;;;5115714;28;20204;-78
2021/11/23 13:35:59;;;;;;;14.30;9.03;;;3.00;99.90;;;;;;5116317;28;20152;-78
2021/11/23 13:38:31;;;;;;;12.80;9.97;;;2.80;99.90;;;;;;5117007;28;20226;-77
2021/11/23 13:40:59;;;;;;;14.03;9.40;;;2.70;99.90;;;;;;5117539;28;20152;-78
2021/11/23 13:43:25;;;;;;;15.93;10.20;;;2.90;99.90;;;;;;5116014;28;20199;-77
2021/11/23 13:46:03;;;;;;;12.80;8.37;;;2.90;99.90;;;;;;5116794;28;20181;-78
2021/11/23 13:48:30;;;;;;;12.53;9.13;;;2.80;99.90;;;;;;5116599;28;20256;-78
2021/11/23 13:51:13;;;;;;;15.43;8.90;;;2.90;99.90;;;;;;5116652;28;20185;-77
2021/11/23 13:53:59;;;;;;;11.07;8.47;;;2.70;99.90;;;;;;5115368;28;20192;-78
2021/11/23 13:56:29;;;;;;;18.27;8.60;;;2.90;99.90;;;;;;5117251;28;20169;-78
2021/11/23 13:58:56;;;;;;;19.30;8.23;;;2.70;99.90;;;;;;5116243;28;20167;-78
2021/11/23 14:01:23;;;;;;;14.43;8.20;;;2.90;99.90;;;;;;5115808;28;20171;-78
2021/11/23 14:04:13;;;;;;;14.83;9.63;;;2.80;99.90;;;;;;5116659;28;20168;-78
2021/11/23 14:06:57;;;;;;;15.00;8.43;;;2.80;99.90;;;;;;5114730;28;20186;-78
2021/11/23 14:09:23;;;;;;;14.97;9.30;;;2.70;99.90;;;;;;5115239;28;20175;-78
2021/11/23 14:12:23;;;;;;;14.37;9.23;;;3.00;99.90;;;;;;5114407;28;20273;-78
2021/11/23 14:15:11;;;;;;;10.47;8.07;;;2.90;99.90;;;;;;5114955;28;20539;-78
2021/11/23 14:17:57;;;;;;;12.80;7.03;;;2.80;99.90;;;;;;5115475;28;20599;-77
2021/11/23 14:20:25;;;;;;;16.03;9.83;;;2.90;99.90;;;;;;5116485;28;20164;-78
2021/11/23 14:22:51;;;;;;;13.17;8.03;;;2.50;99.90;;;;;;5116142;28;20678;-78
2021/11/23 14:25:17;;;;;;;12.83;8.93;;;2.80;99.90;;;;;;5116280;28;20250;-78
2021/11/23 14:27:59;;;;;;;13.17;8.80;;;2.60;99.90;;;;;;5116293;28;20208;-78
2021/11/23 14:30:26;;;;;;;11.80;8.93;;;2.70;99.90;;;;;;5116179;28;20250;-78
2021/11/23 14:32:51;;;;;;;15.67;10.23;;;2.60;99.90;;;;;;5115702;28;20251;-78
2021/11/23 14:35:17;;;;;;;14.83;9.00;;;2.60;99.90;;;;;;5113882;28;20179;-78
2021/11/23 14:37:44;;;;;;;16.23;10.00;;;;;;;;;;5113906;28;20171;-78
2021/11/23 14:40:10;;;;;;;12.67;9.17;;;2.50;99.90;;;;;;5113634;28;20203;-78
2021/11/23 14:42:36;;;;;;;13.90;9.33;;;2.60;99.90;;;;;;5114863;28;20674;-77
2021/11/23 14:45:03;;;;;;;10.70;8.30;;;2.50;99.90;;;;;;5113734;28;20174;-77
2021/11/23 14:47:29;;;;;;;12.10;8.67;;;2.40;99.90;;;;;;5114476;28;20167;-77
2021/11/23 14:49:54;;;;;;;10.73;8.00;;;2.40;99.90;;;;;;5113728;28;20566;-77
2021/11/23 14:52:20;;;;;;;12.07;9.23;;;2.40;99.90;;;;;;5112897;28;20220;-77
2021/11/23 14:54:46;;;;;;;14.40;8.70;;;2.40;99.90;;;;;;5112688;28;20176;-77
2021/11/23 14:57:11;;;;;;;11.80;8.73;;;2.40;99.90;;;;;;5113259;28;20225;-77
2021/11/23 14:59:37;;;;;;;16.00;11.13;;;2.40;99.90;;;;;;5114764;28;20168;-78
2021/11/23 15:02:03;;;;;;;17.60;10.37;;;2.40;99.90;;;;;;5114361;28;20193;-77
2021/11/23 15:04:29;;;;;;;14.13;9.93;;;2.40;99.90;;;;;;5115055;28;20178;-78
2021/11/23 15:06:55;;;;;;;15.97;9.57;;;2.50;99.90;;;;;;5113624;28;20179;-78
2021/11/23 15:09:21;;;;;;;14.87;10.77;;;2.40;99.90;;;;;;5115639;28;20175;-78
2021/11/23 15:11:47;;;;;;;16.73;10.20;;;2.40;99.90;;;;;;5115967;28;20185;-78
2021/11/23 15:14:13;;;;;;;12.13;9.50;;;2.40;99.90;;;;;;5129193;28;20457;-78
2021/11/23 15:16:40;;;;;;;15.63;9.07;;;2.40;99.90;;;;;;5129606;28;20413;-78
2021/11/23 15:19:07;;;;;;;12.40;9.50;;;2.40;99.90;;;;;;5129597;28;20353;-77
2021/11/23 15:21:33;;;;;;;16.57;10.40;;;2.40;99.90;;;;;;5131044;28;20421;-78
2021/11/23 15:23:59;;;;;;;17.73;10.17;;;2.40;99.90;;;;;;5126716;28;20405;-78
2021/11/23 15:26:25;;;;;;;18.03;11.83;;;2.40;99.90;;;;;;5114139;28;20179;-77
2021/11/23 15:28:50;;;;;;;14.70;10.23;;;2.40;99.90;;;;;;5115069;28;20445;-77
2021/11/23 15:31:16;;;;;;;14.70;10.57;;;2.40;99.90;;;;;;5114897;28;20167;-77
2021/11/23 15:33:42;;;;;;;15.03;10.93;;;2.40;99.90;;;;;;5114042;28;20202;-78
